createdAt,value
2022-10-25T00:01:30.523Z,100911.63
2022-10-25T00:03:59.198Z,100909.84
2022-10-25T00:06:27.606Z,100906.34
2022-10-25T00:08:55.933Z,100906.34
2022-10-25T00:11:31.741Z,100900.16
2022-10-25T00:14:03.828Z,100908.06
2022-10-25T00:16:35.624Z,100914.25
2022-10-25T00:19:04.930Z,100897.50
2022-10-25T00:21:37.762Z,100904.56
2022-10-25T00:24:06.650Z,100908.97
2022-10-25T00:26:36.199Z,100910.72
2022-10-25T00:29:04.693Z,100903.69
2022-10-25T00:31:33.214Z,100912.47
2022-10-25T00:34:02.636Z,100908.09
2022-10-25T00:36:31.263Z,100909.84
2022-10-25T00:38:59.635Z,100901.03
2022-10-25T00:41:30.615Z,100904.56
2022-10-25T00:44:36.340Z,100908.09
2022-10-25T00:47:14.907Z,100907.19
2022-10-25T00:49:44.296Z,100924.78
2022-10-25T00:52:13.382Z,100922.16
2022-10-25T00:54:48.418Z,100926.56
2022-10-25T00:57:40.173Z,100915.09
2022-10-25T01:00:09.249Z,100922.16
2022-10-25T01:02:37.761Z,100923.91
2022-10-25T01:05:10.747Z,100930.06
2022-10-25T01:07:39.020Z,100929.19
2022-10-25T01:10:07.779Z,100941.47
2022-10-25T01:12:37.233Z,100935.34
2022-10-25T01:15:06.010Z,100936.22
2022-10-25T01:17:53.462Z,100944.13
2022-10-25T01:20:39.917Z,100938.84
2022-10-25T01:23:30.049Z,100939.75
2022-10-25T01:26:19.906Z,100934.47
2022-10-25T01:29:26.943Z,100938.84
2022-10-25T01:32:04.641Z,100938.84
2022-10-25T01:34:44.835Z,100942.38
2022-10-25T01:37:52.056Z,100952.03
2022-10-25T01:41:19.092Z,100952.06
2022-10-25T01:43:59.559Z,100950.28
2022-10-25T01:46:50.000Z,100955.59
2022-10-25T01:49:28.474Z,100955.59
2022-10-25T01:51:56.942Z,100955.59
2022-10-25T01:54:26.333Z,100959.09
2022-10-25T01:57:17.538Z,100959.13
2022-10-25T02:00:13.306Z,100964.41
2022-10-25T02:02:53.960Z,100961.75
2022-10-25T02:05:33.215Z,100966.16
2022-10-25T02:08:46.303Z,100970.56
2022-10-25T02:11:23.865Z,100967.91
2022-10-25T02:14:05.258Z,100960.00
2022-10-25T02:16:36.766Z,100952.09
2022-10-25T02:19:10.111Z,100958.25
2022-10-25T02:21:39.116Z,100953.84
2022-10-25T02:24:13.766Z,100960.00
2022-10-25T02:26:44.756Z,100944.16
2022-10-25T02:29:15.302Z,100953.84
2022-10-25T02:31:44.276Z,100958.25
2022-10-25T02:34:12.697Z,100948.53
2022-10-25T02:36:41.111Z,100952.06
2022-10-25T02:39:09.387Z,100953.84
2022-10-25T02:41:37.809Z,100959.97
2022-10-25T02:44:06.137Z,100960.00
2022-10-25T02:46:34.421Z,100964.41
2022-10-25T02:49:02.792Z,100960.88
2022-10-25T02:51:31.254Z,100965.25
2022-10-25T02:53:59.836Z,100967.00
2022-10-25T02:56:28.199Z,100966.16
2022-10-25T02:58:57.828Z,100964.38
2022-10-25T03:01:26.529Z,100969.66
2022-10-25T03:03:57.375Z,100974.97
2022-10-25T03:06:25.684Z,100979.34
2022-10-25T03:08:54.006Z,100981.13
2022-10-25T03:11:22.510Z,100977.59
2022-10-25T03:13:50.838Z,100979.34
2022-10-25T03:16:19.293Z,100969.66
2022-10-25T03:18:47.540Z,100979.38
2022-10-25T03:21:15.874Z,100984.63
2022-10-25T03:23:44.140Z,100985.50
2022-10-25T03:26:12.482Z,100992.56
2022-10-25T03:28:40.907Z,100992.56
2022-10-25T03:31:14.302Z,100996.97
2022-10-25T03:33:43.542Z,100989.06
2022-10-25T03:36:12.096Z,101004.06
2022-10-25T03:38:43.149Z,100993.50
2022-10-25T03:41:11.524Z,100996.13
2022-10-25T03:43:39.869Z,100998.78
2022-10-25T03:46:08.138Z,101004.94
2022-10-25T03:48:36.710Z,100997.88
2022-10-25T03:51:05.657Z,101011.97
2022-10-25T03:53:33.950Z,101007.56
2022-10-25T03:56:02.228Z,101018.97
2022-10-25T03:58:32.645Z,101018.97
2022-10-25T04:01:01.276Z,101018.97
2022-10-25T04:03:30.902Z,101031.28
2022-10-25T04:05:59.490Z,101030.41
2022-10-25T04:08:27.727Z,101027.75
2022-10-25T04:10:56.376Z,101034.78
2022-10-25T04:13:24.809Z,101042.72
2022-10-25T04:15:53.086Z,101040.94
2022-10-25T04:18:21.932Z,101038.31
2022-10-25T04:20:50.217Z,101046.22
2022-10-25T04:23:18.482Z,101055.91
2022-10-25T04:25:46.837Z,101050.63
2022-10-25T04:28:16.554Z,101056.78
2022-10-25T04:30:44.775Z,101058.53
2022-10-25T04:33:13.154Z,101059.44
2022-10-25T04:35:43.030Z,101064.72
2022-10-25T04:38:11.515Z,101070.88
2022-10-25T04:40:40.192Z,101066.47
2022-10-25T04:43:08.666Z,101069.13
2022-10-25T04:45:36.932Z,101068.25
2022-10-25T04:48:05.631Z,101070.00
2022-10-25T04:50:33.989Z,101071.75
2022-10-25T04:53:02.346Z,101076.16
2022-10-25T04:55:31.582Z,101077.03
2022-10-25T04:57:59.846Z,101077.91
2022-10-25T05:00:28.172Z,101086.69
2022-10-25T05:02:56.678Z,101084.03
2022-10-25T05:05:26.407Z,101086.69
2022-10-25T05:07:54.690Z,101080.53
2022-10-25T05:10:23.059Z,101077.03
2022-10-25T05:12:54.073Z,101084.03
2022-10-25T05:15:22.444Z,101080.53
2022-10-25T05:17:51.458Z,101086.69
2022-10-25T05:20:20.236Z,101084.03
2022-10-25T05:22:48.905Z,101089.31
2022-10-25T05:25:18.109Z,101097.22
2022-10-25T05:27:46.818Z,101098.09
2022-10-25T05:30:16.429Z,101100.72
2022-10-25T05:32:45.036Z,101098.09
2022-10-25T05:35:13.616Z,101103.38
2022-10-25T05:37:42.372Z,101110.41
2022-10-25T05:40:11.157Z,101112.16
2022-10-25T05:42:39.767Z,101105.13
2022-10-25T05:45:08.495Z,101107.78
2022-10-25T05:47:36.805Z,101119.22
2022-10-25T05:50:05.441Z,101124.47
2022-10-25T05:52:33.758Z,101125.31
2022-10-25T05:55:02.047Z,101127.09
2022-10-25T05:57:30.838Z,101128.84
2022-10-25T05:59:59.192Z,101128.84
2022-10-25T06:02:27.551Z,101135.03
2022-10-25T06:04:55.993Z,101127.09
2022-10-25T06:07:25.061Z,101133.25
2022-10-25T06:09:53.822Z,101129.72
2022-10-25T06:12:22.206Z,101137.66
2022-10-25T06:14:50.576Z,101135.00
2022-10-25T06:17:19.158Z,101142.97
2022-10-25T06:19:47.450Z,101142.06
2022-10-25T06:22:15.762Z,101144.72
2022-10-25T06:24:44.063Z,101143.84
2022-10-25T06:27:12.490Z,101152.69
2022-10-25T06:29:40.811Z,101154.44
2022-10-25T06:32:09.095Z,101158.00
2022-10-25T06:34:37.344Z,101161.53
2022-10-25T06:37:05.829Z,101165.06
2022-10-25T06:39:34.136Z,101174.75
2022-10-25T06:42:02.491Z,101175.66
2022-10-25T06:44:31.110Z,101184.47
2022-10-25T06:47:17.713Z,101182.75
2022-10-25T06:49:46.602Z,101188.03
2022-10-25T06:52:14.898Z,101185.38
2022-10-25T06:54:43.299Z,101189.78
2022-10-25T06:57:11.557Z,101196.81
2022-10-25T06:59:39.850Z,101203.88
2022-10-25T07:02:09.622Z,101212.66
2022-10-25T07:04:39.017Z,101221.50
2022-10-25T07:07:07.682Z,101224.13
2022-10-25T07:09:36.038Z,101231.19
2022-10-25T07:12:06.621Z,101221.50
2022-10-25T07:14:38.549Z,101232.97
2022-10-25T07:17:06.843Z,101237.38
2022-10-25T07:19:35.539Z,101232.97
2022-10-25T07:22:03.845Z,101246.19
2022-10-25T07:24:33.788Z,101243.56
2022-10-25T07:27:02.148Z,101248.84
2022-10-25T07:29:31.894Z,101255.00
2022-10-25T07:32:00.370Z,101253.25
2022-10-25T07:34:28.841Z,101247.97
2022-10-25T07:36:57.288Z,101253.25
2022-10-25T07:39:25.752Z,101255.88
2022-10-25T07:41:54.411Z,101255.91
2022-10-25T07:44:24.868Z,101255.00
2022-10-25T07:46:55.515Z,101249.75
2022-10-25T07:49:23.869Z,101245.34
2022-10-25T07:51:52.181Z,101248.00
2022-10-25T07:54:20.657Z,101247.13
2022-10-25T07:56:49.139Z,101261.25
2022-10-25T07:59:17.879Z,101264.75
2022-10-25T08:01:46.617Z,101261.25
2022-10-25T08:04:15.567Z,101264.81
2022-10-25T08:06:43.824Z,101270.09
2022-10-25T08:09:14.840Z,101277.16
2022-10-25T08:11:54.998Z,101271.00
2022-10-25T08:14:24.773Z,101275.41
2022-10-25T08:16:53.123Z,101274.53
2022-10-25T08:19:21.468Z,101282.44
2022-10-25T08:21:49.987Z,101269.25
2022-10-25T08:26:46.470Z,101287.78
2022-10-25T08:29:14.985Z,101284.25
2022-10-25T08:31:43.445Z,101290.38
2022-10-25T08:36:45.112Z,101286.91
2022-10-25T08:39:13.441Z,101288.66
2022-10-25T08:41:56.243Z,101293.94
2022-10-25T08:44:39.657Z,101288.66
2022-10-25T08:47:26.976Z,101289.50
2022-10-25T08:50:18.496Z,101293.88
2022-10-25T08:53:08.186Z,101306.22
2022-10-25T08:55:41.676Z,101297.34
2022-10-25T08:58:29.846Z,101302.63
2022-10-25T09:01:01.628Z,101312.31
2022-10-25T09:03:30.188Z,101322.03
2022-10-25T09:06:00.078Z,101317.56
2022-10-25T09:08:47.092Z,101322.00
2022-10-25T09:11:42.541Z,101336.19
2022-10-25T09:14:32.750Z,101344.13
2022-10-25T09:17:17.682Z,101334.41
2022-10-25T09:19:54.061Z,101347.69
2022-10-25T09:22:28.463Z,101346.78
2022-10-25T09:25:12.173Z,101352.13
2022-10-25T09:27:56.114Z,101353.91
2022-10-25T09:30:24.539Z,101360.06
2022-10-25T09:32:57.500Z,101360.94
2022-10-25T09:35:50.947Z,101378.56
2022-10-25T09:38:25.251Z,101374.16
2022-10-25T09:40:56.993Z,101382.09
2022-10-25T09:43:46.000Z,101375.88
2022-10-25T09:46:22.037Z,101379.44
2022-10-25T09:48:58.166Z,101380.31
2022-10-25T09:51:51.897Z,101377.66
2022-10-25T09:54:44.515Z,101383.78
2022-10-25T09:57:13.688Z,101381.16
2022-10-25T09:59:43.243Z,101387.31
2022-10-25T10:02:17.323Z,101384.63
2022-10-25T10:04:46.027Z,101391.72
2022-10-25T10:07:29.638Z,101397.00
2022-10-25T10:10:02.301Z,101398.75
2022-10-25T10:12:43.555Z,101398.75
2022-10-25T10:15:16.626Z,101394.31
2022-10-25T10:17:45.156Z,101399.59
2022-10-25T10:20:18.707Z,101399.59
2022-10-25T10:22:51.733Z,101390.78
2022-10-25T10:25:24.802Z,101392.50
2022-10-25T10:27:55.913Z,101396.91
2022-10-25T10:30:29.543Z,101390.72
2022-10-25T10:33:01.315Z,101390.75
2022-10-25T10:35:30.593Z,101396.03
2022-10-25T10:38:26.853Z,101383.63
2022-10-25T10:41:14.789Z,101396.00
2022-10-25T10:43:43.169Z,101382.69
2022-10-25T10:46:15.924Z,101378.25
2022-10-25T10:48:52.484Z,101387.06
2022-10-25T10:51:43.473Z,101392.31
2022-10-25T10:54:24.393Z,101394.06
2022-10-25T10:57:13.944Z,101401.16
2022-10-25T10:59:53.216Z,101396.72
2022-10-25T11:02:42.069Z,101410.78
2022-10-25T11:05:19.210Z,101407.22
2022-10-25T11:07:58.234Z,101407.16
2022-10-25T11:10:33.278Z,101414.22
2022-10-25T11:13:10.975Z,101415.06
2022-10-25T11:15:51.591Z,101414.25
2022-10-25T11:18:32.834Z,101423.16
2022-10-25T11:21:38.272Z,101428.47
2022-10-25T11:24:34.129Z,101424.94
2022-10-25T11:27:15.838Z,101428.50
2022-10-25T11:29:54.122Z,101433.81
2022-10-25T11:32:50.364Z,101429.47
2022-10-25T11:35:53.698Z,101436.56
2022-10-25T11:38:40.790Z,101433.91
2022-10-25T11:41:40.399Z,101443.63
2022-10-25T11:44:47.441Z,101448.97
2022-10-25T11:47:27.009Z,101437.44
2022-10-25T11:50:11.744Z,101440.94
2022-10-25T11:52:57.931Z,101450.63
2022-10-25T11:55:49.799Z,101455.00
2022-10-25T11:58:41.475Z,101454.03
2022-10-25T12:01:09.758Z,101442.44
2022-10-25T12:03:56.985Z,101449.47
2022-10-25T12:06:55.853Z,101453.00
2022-10-25T12:09:52.629Z,101443.25
2022-10-25T12:12:26.369Z,101459.16
2022-10-25T12:15:00.728Z,101452.03
2022-10-25T12:17:34.190Z,101444.03
2022-10-25T12:20:10.921Z,101453.78
2022-10-25T12:22:45.821Z,101449.34
2022-10-25T12:25:26.728Z,101453.75
2022-10-25T12:28:06.951Z,101454.59
2022-10-25T12:30:35.800Z,101456.34
2022-10-25T12:33:19.105Z,101460.78
2022-10-25T12:35:51.110Z,101463.50
2022-10-25T12:38:39.312Z,101453.78
2022-10-25T12:41:30.195Z,101453.78
2022-10-25T12:44:10.622Z,101459.09
2022-10-25T12:46:57.283Z,101463.50
2022-10-25T12:49:47.614Z,101464.31
2022-10-25T12:52:29.655Z,101466.09
2022-10-25T12:55:09.317Z,101464.31
2022-10-25T12:58:00.243Z,101479.44
2022-10-25T13:00:38.590Z,101473.25
2022-10-25T13:03:33.882Z,101470.56
2022-10-25T13:06:05.248Z,101473.22
2022-10-25T13:08:34.612Z,101467.84
2022-10-25T13:11:06.773Z,101472.22
2022-10-25T13:13:41.376Z,101473.13
2022-10-25T13:16:13.170Z,101471.34
2022-10-25T13:18:47.887Z,101475.84
2022-10-25T13:21:37.453Z,101470.56
2022-10-25T13:24:10.151Z,101481.19
2022-10-25T13:27:18.891Z,101475.88
2022-10-25T13:29:59.867Z,101480.25
2022-10-25T13:32:35.789Z,101492.59
2022-10-25T13:35:22.636Z,101493.38
2022-10-25T13:38:05.701Z,101485.34
2022-10-25T13:40:34.503Z,101488.00
2022-10-25T13:43:07.106Z,101484.47
2022-10-25T13:45:41.854Z,101489.78
2022-10-25T13:48:31.809Z,101497.84
2022-10-25T13:51:11.579Z,101505.03
2022-10-25T13:53:50.355Z,101495.31
2022-10-25T13:56:49.362Z,101498.94
2022-10-25T13:59:57.121Z,101499.81
2022-10-25T14:02:26.085Z,101495.41
2022-10-25T14:04:55.586Z,101499.78
2022-10-25T14:07:45.119Z,101496.28
2022-10-25T14:10:24.600Z,101495.44
2022-10-25T14:12:58.107Z,101501.69
2022-10-25T14:15:38.332Z,101495.50
2022-10-25T14:18:12.434Z,101499.88
2022-10-25T14:20:45.455Z,101495.44
2022-10-25T14:23:22.104Z,101499.81
2022-10-25T14:25:59.427Z,101506.00
2022-10-25T14:28:29.152Z,101506.00
2022-10-25T14:31:04.236Z,101493.63
2022-10-25T14:33:35.515Z,101495.44
2022-10-25T14:36:06.332Z,101496.34
2022-10-25T14:38:51.410Z,101495.50
2022-10-25T14:41:25.452Z,101503.50
2022-10-25T14:43:54.912Z,101508.84
2022-10-25T14:46:25.320Z,101503.56
2022-10-25T14:48:56.682Z,101498.28
2022-10-25T14:51:28.574Z,101500.09
2022-10-25T14:54:36.889Z,101491.25
2022-10-25T14:57:11.184Z,101500.19
2022-10-25T14:59:53.971Z,101501.97
2022-10-25T15:02:35.309Z,101496.69
2022-10-25T15:05:04.874Z,101497.63
2022-10-25T15:07:38.265Z,101497.63
2022-10-25T15:10:27.095Z,101492.34
2022-10-25T15:12:55.422Z,101494.13
2022-10-25T15:15:35.401Z,101499.47
2022-10-25T15:18:04.164Z,101504.75
2022-10-25T15:20:34.538Z,101510.97
2022-10-25T15:23:15.687Z,101499.50
2022-10-25T15:25:44.088Z,101499.53
2022-10-25T15:28:14.988Z,101493.31
2022-10-25T15:30:43.498Z,101504.81
2022-10-25T15:33:20.070Z,101501.28
2022-10-25T15:35:55.985Z,101504.81
2022-10-25T15:38:47.929Z,101507.47
2022-10-25T15:41:21.889Z,101510.16
2022-10-25T15:43:50.547Z,101503.09
2022-10-25T15:46:33.226Z,101508.41
2022-10-25T15:49:06.792Z,101511.94
2022-10-25T15:51:39.777Z,101512.84
2022-10-25T15:54:15.813Z,101510.19
2022-10-25T15:56:45.129Z,101504.88
2022-10-25T15:59:14.081Z,101510.19
2022-10-25T16:01:45.467Z,101512.81
2022-10-25T16:04:15.986Z,101515.50
2022-10-25T16:06:45.432Z,101511.06
2022-10-25T16:09:13.777Z,101518.13
2022-10-25T16:11:47.107Z,101509.28
2022-10-25T16:14:21.439Z,101517.25
2022-10-25T16:16:50.751Z,101512.81
2022-10-25T16:19:20.270Z,101511.03
2022-10-25T16:21:49.233Z,101515.47
2022-10-25T16:24:18.074Z,101511.06
2022-10-25T16:26:48.095Z,101515.47
2022-10-25T16:29:19.185Z,101515.44
2022-10-25T16:31:47.765Z,101521.59
2022-10-25T16:34:17.879Z,101518.94
2022-10-25T16:36:47.693Z,101513.59
2022-10-25T16:39:16.285Z,101516.22
2022-10-25T16:41:46.712Z,101522.41
2022-10-25T16:44:17.808Z,101524.16
2022-10-25T16:46:46.673Z,101530.34
2022-10-25T16:49:15.310Z,101528.56
2022-10-25T16:51:44.381Z,101525.03
2022-10-25T16:54:12.980Z,101527.66
2022-10-25T16:56:41.331Z,101519.72
2022-10-25T16:59:09.590Z,101525.84
2022-10-25T17:01:40.166Z,101522.28
2022-10-25T17:04:11.222Z,101517.84
2022-10-25T17:06:42.044Z,101522.28
2022-10-25T17:09:12.591Z,101520.50
2022-10-25T17:11:44.862Z,101523.13
2022-10-25T17:14:14.255Z,101529.25
2022-10-25T17:16:44.282Z,101526.59
2022-10-25T17:19:13.186Z,101524.81
2022-10-25T17:21:41.493Z,101521.25
2022-10-25T17:24:10.081Z,101527.41
2022-10-25T17:26:38.977Z,101537.94
2022-10-25T17:29:07.511Z,101529.13
2022-10-25T17:31:36.129Z,101537.03
2022-10-25T17:34:04.516Z,101540.53
2022-10-25T17:36:33.522Z,101532.56
2022-10-25T17:39:01.837Z,101536.06
2022-10-25T17:41:30.173Z,101536.06
2022-10-25T17:43:58.657Z,101537.81
2022-10-25T17:46:29.559Z,101545.69
2022-10-25T17:49:05.956Z,101536.88
2022-10-25T17:51:34.672Z,101536.00
2022-10-25T17:54:03.190Z,101541.25
2022-10-25T17:59:07.897Z,101541.22
2022-10-25T18:01:43.109Z,101541.16
2022-10-25T18:04:11.585Z,101549.94
2022-10-25T18:06:40.729Z,101538.47
2022-10-25T18:09:12.306Z,101544.63
2022-10-25T18:11:43.368Z,101549.00
2022-10-25T18:14:12.299Z,101551.66
2022-10-25T18:16:42.123Z,101549.06
2022-10-25T18:19:14.507Z,101560.56
2022-10-25T18:21:43.184Z,101557.94
2022-10-25T18:24:13.000Z,101557.97
2022-10-25T18:26:46.288Z,101558.00
2022-10-25T18:29:17.096Z,101556.25
2022-10-25T18:31:45.713Z,101551.00
2022-10-25T18:34:17.018Z,101554.56
2022-10-25T18:36:45.559Z,101547.53
2022-10-25T18:39:15.941Z,101551.06
2022-10-25T18:41:44.443Z,101554.63
2022-10-25T18:44:15.246Z,101560.78
2022-10-25T18:46:51.204Z,101560.78
2022-10-25T18:49:19.980Z,101561.66
2022-10-25T18:51:49.457Z,101555.47
2022-10-25T18:54:21.444Z,101559.00
2022-10-25T18:56:52.787Z,101557.19
2022-10-25T18:59:21.588Z,101562.50
2022-10-25T19:01:50.153Z,101558.94
2022-10-25T19:04:18.672Z,101564.22
2022-10-25T19:06:47.806Z,101556.28
2022-10-25T19:09:18.748Z,101556.28
2022-10-25T19:11:47.257Z,101555.38
2022-10-25T19:14:15.661Z,101558.88
2022-10-25T19:16:49.967Z,101553.59
2022-10-25T19:19:18.258Z,101559.78
2022-10-25T19:21:46.628Z,101555.34
2022-10-25T19:24:21.177Z,101552.69
2022-10-25T19:26:49.715Z,101543.88
2022-10-25T19:29:21.110Z,101550.03
2022-10-25T19:31:51.969Z,101550.03
2022-10-25T19:34:20.789Z,101548.25
2022-10-25T19:36:51.969Z,101552.66
2022-10-25T19:39:20.427Z,101548.25
2022-10-25T19:41:50.449Z,101548.28
2022-10-25T19:44:18.984Z,101544.75
2022-10-25T19:46:49.680Z,101541.25
2022-10-25T19:49:18.327Z,101550.94
2022-10-25T19:51:54.198Z,101548.31
2022-10-25T19:54:25.214Z,101555.41
2022-10-25T19:56:55.307Z,101549.22
2022-10-25T19:59:23.572Z,101552.75
2022-10-25T20:01:51.879Z,101546.63
2022-10-25T20:04:21.040Z,101551.91
2022-10-25T20:06:49.562Z,101544.84
2022-10-25T20:09:17.833Z,101548.34
2022-10-25T20:11:46.495Z,101546.63
2022-10-25T20:14:14.742Z,101551.00
2022-10-25T20:16:43.068Z,101554.47
2022-10-25T20:19:13.635Z,101541.25
2022-10-25T20:21:45.194Z,101546.50
2022-10-25T20:24:16.221Z,101555.31
2022-10-25T20:26:49.325Z,101554.41
2022-10-25T20:29:23.742Z,101557.00
2022-10-25T20:31:55.433Z,101548.16
2022-10-25T20:34:24.105Z,101558.72
2022-10-25T20:36:55.085Z,101567.47
2022-10-25T20:39:23.471Z,101563.03
2022-10-25T20:41:51.719Z,101565.59
2022-10-25T20:44:20.038Z,101562.91
2022-10-25T20:46:51.394Z,101560.22
2022-10-25T20:49:19.860Z,101566.34
2022-10-25T20:51:48.330Z,101561.91
2022-10-25T20:54:16.684Z,101555.69
2022-10-25T20:56:48.209Z,101553.84
2022-10-25T20:59:17.446Z,101561.75
2022-10-25T21:04:53.333Z,101563.44
2022-10-25T21:07:29.888Z,101561.66
2022-10-25T21:09:59.223Z,101563.41
2022-10-25T21:12:34.351Z,101559.88
2022-10-25T21:15:05.848Z,101566.91
2022-10-25T21:17:37.692Z,101557.25
2022-10-25T21:20:07.200Z,101567.78
2022-10-25T21:22:35.591Z,101565.09
2022-10-25T21:25:06.419Z,101558.88
2022-10-25T21:27:40.803Z,101574.69
2022-10-25T21:30:10.211Z,101557.03
2022-10-25T21:32:39.239Z,101558.75
2022-10-25T21:35:08.132Z,101558.72
2022-10-25T21:37:36.364Z,101556.03
2022-10-25T21:40:04.946Z,101557.75
2022-10-25T21:42:35.983Z,101569.16
2022-10-25T21:45:04.625Z,101562.94
2022-10-25T21:47:38.821Z,101570.81
2022-10-25T21:50:09.191Z,101566.34
2022-10-25T21:52:37.534Z,101572.50
2022-10-25T21:55:06.359Z,101566.31
2022-10-25T21:57:34.931Z,101557.50
2022-10-25T22:00:04.574Z,101564.50
2022-10-25T22:02:41.247Z,101556.56
2022-10-25T22:05:09.692Z,101559.19
2022-10-25T22:07:37.980Z,101560.91
2022-10-25T22:10:07.563Z,101565.28
2022-10-25T22:12:36.225Z,101563.53
2022-10-25T22:15:04.767Z,101562.59
2022-10-25T22:17:33.102Z,101561.69
2022-10-25T22:20:01.350Z,101565.16
2022-10-25T22:22:29.691Z,101557.19
2022-10-25T22:24:58.000Z,101555.38
2022-10-25T22:27:26.348Z,101552.72
2022-10-25T22:29:54.570Z,101557.97
2022-10-25T22:32:22.904Z,101546.53
2022-10-25T22:34:51.804Z,101557.00
2022-10-25T22:37:20.138Z,101551.72
2022-10-25T22:39:48.412Z,101551.66
2022-10-25T22:42:17.521Z,101553.38
2022-10-25T22:44:45.769Z,101553.34
2022-10-25T22:47:14.068Z,101556.88
2022-10-25T22:49:42.431Z,101557.72
2022-10-25T22:52:11.530Z,101555.94
2022-10-25T22:54:39.846Z,101555.03
2022-10-25T22:57:08.342Z,101559.41
2022-10-25T22:59:36.842Z,101554.13
2022-10-25T23:02:05.133Z,101556.75
2022-10-25T23:04:33.441Z,101549.72
2022-10-25T23:07:01.813Z,101548.81
2022-10-25T23:09:30.269Z,101544.41
2022-10-25T23:11:58.533Z,101547.03
2022-10-25T23:14:26.841Z,101557.56
2022-10-25T23:16:56.460Z,101554.06
2022-10-25T23:19:24.913Z,101554.00
2022-10-25T23:21:53.177Z,101551.38
2022-10-25T23:24:21.513Z,101554.00
2022-10-25T23:26:49.762Z,101546.03
2022-10-25T23:29:18.165Z,101545.13
2022-10-25T23:31:46.504Z,101551.25
2022-10-25T23:34:14.924Z,101550.31
2022-10-25T23:36:43.384Z,101550.28
2022-10-25T23:39:11.658Z,101553.75
2022-10-25T23:41:39.977Z,101556.38
2022-10-25T23:44:08.214Z,101554.56
2022-10-25T23:46:36.534Z,101554.56
2022-10-25T23:49:04.768Z,101550.16
2022-10-25T23:51:33.174Z,101553.63
2022-10-25T23:54:02.733Z,101556.25
2022-10-25T23:56:31.210Z,101558.00
2022-10-25T23:59:02.903Z,101554.44
